Flight Track Log - Related Links

Times and Time Zones

All times are in EDT time to prevent confusion due to time zone crossing. See the ASQ5874 flight status page for this flight to view local times or setup timezone preferences in your user account.

Time Position Orientation Groundspeed Altitude Reporting Facility
EDT Latitude Longitude Course Direction KTS MPH feet Rate Location/Type
Wed 10:19:30 AM 41.9500 -72.6717 236° Southwest 152 175 800  Level Boston Center
Wed 10:20:47 AM 41.9939 -72.5992 51° Northeast 211 243 3,500 2,234 Climbing Boston Center
Wed 10:21:47 AM 42.0250 -72.6414 315° West 144 166 5,900 2,150 Climbing Boston Center
Wed 10:22:00 AM 41.9141 -73.0788 263° West  Level FlightAware Approximate
Wed 10:22:47 AM 42.0186 -72.7194 264° West 149 171 7,800  Level Boston Center
Wed 10:23:00 AM 41.9021 -73.2104 263° West  Level FlightAware Approximate
Wed 10:23:47 AM 41.9997 -72.8172 255° West 207 238 9,800  Level Boston Center
Wed 10:24:00 AM 41.8823 -73.3355 236° Southwest  Level FlightAware Approximate
Wed 10:24:47 AM 41.9806 -72.9175 256° West 253 291 11,800  Level Boston Center
Wed 10:25:47 AM 41.9611 -73.0264 257° West 277 319 14,000 2,100 Climbing Boston Center
Wed 10:26:47 AM 41.9442 -73.1183 256° West 283 326 16,000 1,700 Climbing Boston Center
Wed 10:27:47 AM 41.9203 -73.2269 254° West 278 320 17,400 950 Climbing Boston Center
Wed 10:28:47 AM 41.8469 -73.3122 221° Southwest 319 367 17,900 450 Climbing Boston Center
Wed 10:29:47 AM 41.7711 -73.4003 221° Southwest 350 403 18,300 950 Climbing Boston Center
Wed 10:30:47 AM 41.6911 -73.4881 219° Southwest 367 422 19,800 1,700 Climbing Boston Center
Wed 10:31:47 AM 41.6153 -73.5758 221° Southwest 372 428 21,700 1,828 Climbing Boston Center
Wed 10:33:18 AM 41.5067 -73.6936 219° Southwest 366 421 24,400 1,651 Climbing New York Center
Wed 10:34:16 AM 41.4358 -73.7736 220° Southwest 353 406 25,800 1,068 Climbing New York Center
Wed 10:35:16 AM 41.3628 -73.8561 220° Southwest 348 400 26,500 595 Climbing New York Center
Wed 10:36:17 AM 41.2814 -73.9461 220° Southwest 362 417 27,000 545 Climbing New York Center
Wed 10:37:17 AM 41.1997 -74.0361 220° Southwest 375 432 27,600 496 Climbing New York Center
Wed 10:38:18 AM 41.1242 -74.1369 225° Southwest 381 438 28,000 202 Climbing New York Center
Wed 10:39:16 AM 41.0667 -74.2442 235° Southwest 392 451 28,000  Level New York Center
Wed 10:40:17 AM 41.0089 -74.3706 239° Southwest 404 465 28,000  Level New York Center
Wed 10:41:18 AM 40.9506 -74.5047 240° Southwest 414 476 28,000  Level New York Center
Wed 10:42:19 AM 40.8922 -74.6361 240° Southwest 420 483 28,000  Level New York Center
Wed 10:43:17 AM 40.8228 -74.7800 238° Southwest 420 483 28,000  Level New York Center
Wed 10:44:17 AM 40.7658 -74.9164 241° Southwest 426 490 28,000  Level New York Center
Wed 10:45:18 AM 40.7050 -75.0469 238° Southwest 426 490 28,000  Level New York Center
Wed 10:46:16 AM 40.6439 -75.1825 239° Southwest 426 490 28,000 -102 Level New York Center
Wed 10:47:16 AM 40.5822 -75.3181 239° Southwest 426 490 27,800 -800 Descending New York Center
Wed 10:48:16 AM 40.5186 -75.4531 238° Southwest 431 496 26,400 -1,475 Descending New York Center
Wed 10:49:18 AM 40.4594 -75.5828 239° Southwest 426 490 24,800 -1,820 Descending New York Center
Wed 10:50:18 AM 40.4022 -75.7067 239° Southwest 414 476 22,700 -2,136 Descending New York Center
Wed 10:51:16 AM 40.3428 -75.8306 238° Southwest 407 468 20,600 -1,350 Descending New York Center
Wed 10:52:18 AM 40.2900 -75.9383 237° Southwest 400 460 20,000 -295 Descending New York Center
Wed 10:53:18 AM 40.2328 -76.0536 237° Southwest 395 455 20,000  Level New York Center
Wed 10:54:16 AM 40.1772 -76.1744 239° Southwest 372 428 20,000 -102 Level New York Center
Wed 10:55:16 AM 40.1222 -76.2842 237° Southwest 363 418 19,800 -560 Descending New York Center
Wed 10:57:18 AM 40.0167 -76.5000 237° Southwest 351 404 18,300 -725 Descending Potomac TRACON
Wed 10:58:18 AM 39.9667 -76.6167 241° Southwest 349 402 17,600 -750 Descending Potomac TRACON
Wed 10:59:18 AM 39.9167 -76.7167 237° Southwest 351 404 16,800 -842 Descending Potomac TRACON
Wed 11:00:12 AM 39.8667 -76.8167 237° Southwest 377 434 16,000 -1,579 Descending Potomac TRACON
Wed 11:01:12 AM 39.8167 -76.9333 241° Southwest 373 429 13,800 -2,400 Descending Potomac TRACON
Wed 11:02:07 AM 39.7667 -77.0500 241° Southwest 368 423 11,400 -1,884 Descending Potomac TRACON
Wed 11:03:13 AM 39.7167 -77.1667 241° Southwest 358 412 10,000 -667 Descending Potomac TRACON
Wed 11:04:13 AM 39.6667 -77.2667 237° Southwest 347 399 10,000 -368 Level Potomac TRACON
Wed 11:05:07 AM 39.6000 -77.3333 218° Southwest 284 327 9,300 -1,211 Descending Potomac TRACON
Wed 11:06:07 AM 39.5333 -77.3500 191° South 281 323 7,700 -1,140 Descending Potomac TRACON
Wed 11:07:08 AM 39.4500 -77.3500 180° South 280 322 7,000 -678 Descending Potomac TRACON
Wed 11:08:02 AM 39.3833 -77.3667 191° South 273 314 6,400 -1,000 Descending Potomac TRACON
Wed 11:09:02 AM 39.3167 -77.3667 180° South 258 297 5,100 -800 Descending Potomac TRACON
Wed 11:10:02 AM 39.2333 -77.3667 180° South 254 292 4,800 -574 Descending Potomac TRACON
Wed 11:10:57 AM 39.1833 -77.3500 166° South 249 287 4,000 -417 Descending Potomac TRACON
Wed 11:11:57 AM 39.1167 -77.3500 180° South 248 285 4,000  Level Potomac TRACON
Wed 11:12:57 AM 39.0333 -77.3500 180° South 250 288 4,000 -250 Level Potomac TRACON
Wed 11:13:57 AM 38.9667 -77.3500 180° South 254 292 3,500 -500 Descending Potomac TRACON

Login

Don't have an account? Register now (free) for customized features, flight alerts, and more!